Time;durP1;ratioP1;P1;durP2;ratioP2;P2;SDS_P1;SDS_P2;PMS_P1;PMS_P2;Temp;Humidity;BMP_temperature;BMP_pressure;BME280_temperature;BME280_humidity;BME280_pressure;Samples;Min_cycle;Max_cycle;Signal;HPM_P1;HPM_P2
2021/03/06 00:02:13;;;;;;;5.20;1.60;;;;;;;;;;5022425;28;20086;-61
2021/03/06 00:04:41;;;;;;;1.55;1.00;;;;;;;;;;5058606;28;20036;-61
2021/03/06 00:07:09;;;;;;;9.25;1.90;;;;;;;;;;5039965;28;20024;-61
2021/03/06 00:09:37;;;;;;;3.92;1.95;;;;;;;;;;5046599;28;20036;-62
2021/03/06 00:12:05;;;;;;;4.72;2.20;;;;;;;;;;5043898;28;21153;-60
2021/03/06 00:14:34;;;;;;;1.25;1.15;;;;;;;;;;5043682;28;20082;-63
2021/03/06 00:17:01;;;;;;;4.15;1.67;;;;;;;;;;5030756;28;20107;-61
2021/03/06 00:19:28;;;;;;;5.05;1.50;;;;;;;;;;5055578;28;21947;-61
2021/03/06 00:21:56;;;;;;;14.20;2.00;;;;;;;;;;5047359;28;20024;-62
2021/03/06 00:24:23;;;;;;;2.20;1.50;;;;;;;;;;5029420;28;20063;-62
2021/03/06 00:26:52;;;;;;;1.95;1.75;;;;;;;;;;5058045;28;20036;-62
2021/03/06 00:29:17;;;;;;;3.63;1.20;;;;;;;;;;5041933;28;20123;-62
2021/03/06 00:31:43;;;;;;;3.15;0.88;;;;;;;;;;5031322;28;20036;-63
2021/03/06 00:34:13;;;;;;;10.05;1.60;;;;;;;;;;5042244;28;20281;-62
2021/03/06 00:36:39;;;;;;;4.13;1.17;;;;;;;;;;5045885;28;20029;-61
2021/03/06 00:39:05;;;;;;;6.88;1.33;;;;;;;;;;5045931;28;20037;-61
2021/03/06 00:41:35;;;;;;;5.90;1.23;;;;;;;;;;5030423;28;20035;-62
2021/03/06 00:44:03;;;;;;;1.88;1.42;;;;;;;;;;5058927;28;21132;-62
2021/03/06 00:46:31;;;;;;;9.75;1.75;;;;;;;;;;5042755;28;20035;-62
2021/03/06 00:49:02;;;;;;;4.20;1.52;;;;;;;;;;5059081;28;20028;-62
2021/03/06 00:51:27;;;;;;;2.90;0.93;;;;;;;;;;5044140;28;20032;-62
2021/03/06 00:53:53;;;;;;;10.55;2.50;;;;;;;;;;5057552;28;20146;-62
2021/03/06 00:56:23;;;;;;;1.42;1.15;;;;;;;;;;5042950;28;20138;-62
2021/03/06 00:58:53;;;;;;;5.30;1.58;;;;;;;;;;5058518;28;20025;-61
2021/03/06 01:01:21;;;;;;;7.93;2.05;;;;;;;;;;5014803;28;20148;-62
2021/03/06 01:03:49;;;;;;;5.63;2.17;;;;;;;;;;5043752;28;20574;-62
2021/03/06 01:06:14;;;;;;;4.10;2.13;;;;;;;;;;5039265;28;20771;-61
2021/03/06 01:08:42;;;;;;;7.18;2.00;;;;;;;;;;5044246;28;20167;-61
2021/03/06 01:11:07;;;;;;;9.90;2.00;;;;;;;;;;5042684;28;20407;-61
2021/03/06 01:13:33;;;;;;;8.00;1.38;;;;;;;;;;5042862;28;20514;-61
2021/03/06 01:16:00;;;;;;;6.57;1.88;;;;;;;;;;5040405;28;21141;-61
2021/03/06 01:18:26;;;;;;;6.03;2.25;;;;;;;;;;5058846;28;20071;-62
2021/03/06 01:20:57;;;;;;;2.67;1.77;;;;;;;;;;5039265;28;20096;-61
2021/03/06 01:23:25;;;;;;;5.05;1.63;;;;;;;;;;5024980;28;20028;-61
2021/03/06 01:25:50;;;;;;;6.25;1.67;;;;;;;;;;5026718;28;20048;-60
2021/03/06 01:28:19;;;;;;;2.83;1.77;;;;;;;;;;5057975;28;20036;-60
2021/03/06 01:30:44;;;;;;;4.85;2.22;;;;;;;;;;5038168;28;20036;-61
2021/03/06 01:33:09;;;;;;;4.15;1.90;;;;;;;;;;5040019;28;20071;-61
2021/03/06 01:35:37;;;;;;;12.93;1.95;;;;;;;;;;5024687;28;20063;-61
2021/03/06 01:38:03;;;;;;;5.97;1.75;;;;;;;;;;5040604;28;20051;-61
2021/03/06 01:40:30;;;;;;;4.80;1.55;;;;;;;;;;5041687;28;20028;-61
2021/03/06 01:43:04;;;;;;;3.55;1.38;;;;;;;;;;5024229;28;20032;-62
2021/03/06 01:45:35;;;;;;;9.52;2.10;;;;;;;;;;5046022;28;20448;-60
2021/03/06 01:48:00;;;;;;;9.50;1.95;;;;;;;;;;5028620;28;20027;-61
2021/03/06 01:50:31;;;;;;;4.30;1.90;;;;;;;;;;5058455;28;20028;-61
2021/03/06 01:52:59;;;;;;;6.57;1.45;;;;;;;;;;5038237;28;20212;-61
2021/03/06 01:55:26;;;;;;;3.90;1.73;;;;;;;;;;5034458;28;20032;-61
2021/03/06 01:57:51;;;;;;;9.63;1.98;;;;;;;;;;5041911;28;21362;-60
2021/03/06 02:00:21;;;;;;;2.83;1.52;;;;;;;;;;5038163;28;20028;-61
2021/03/06 02:02:47;;;;;;;4.00;1.48;;;;;;;;;;5058067;28;20046;-61
2021/03/06 02:05:14;;;;;;;2.38;1.20;;;;;;;;;;5040068;28;20048;-61
2021/03/06 02:07:42;;;;;;;2.95;1.50;;;;;;;;;;5060241;28;20036;-60
2021/03/06 02:10:09;;;;;;;1.80;1.55;;;;;;;;;;5057698;28;20039;-61
2021/03/06 02:12:48;;;;;;;4.22;1.52;;;;;;;;;;5057971;28;20037;-61
2021/03/06 02:15:25;;;;;;;2.38;1.30;;;;;;;;;;5041452;28;20028;-61
2021/03/06 02:17:52;;;;;;;5.30;1.67;;;;;;;;;;5027698;28;20052;-61
2021/03/06 02:20:33;;;;;;;12.57;1.70;;;;;;;;;;5024047;28;20032;-61
2021/03/06 02:23:08;;;;;;;4.10;2.03;;;;;;;;;;5056884;28;20028;-60
2021/03/06 02:25:37;;;;;;;3.88;1.35;;;;;;;;;;5055620;28;20051;-61
2021/03/06 02:28:21;;;;;;;7.40;1.25;;;;;;;;;;5027554;28;20112;-60
2021/03/06 02:30:47;;;;;;;3.58;1.70;;;;;;;;;;5040263;28;20487;-60
2021/03/06 02:33:16;;;;;;;5.13;1.25;;;;;;;;;;5047585;28;20056;-60
2021/03/06 02:35:43;;;;;;;4.63;2.17;;;;;;;;;;5056578;28;20036;-61
2021/03/06 02:38:10;;;;;;;6.90;1.83;;;;;;;;;;5039173;28;20024;-61
2021/03/06 02:40:39;;;;;;;5.75;1.75;;;;;;;;;;5041563;28;20448;-61
2021/03/06 02:43:06;;;;;;;2.13;1.42;;;;;;;;;;5020117;28;20039;-60
2021/03/06 02:45:32;;;;;;;6.75;1.50;;;;;;;;;;5052976;28;20151;-61
2021/03/06 02:47:59;;;;;;;5.10;1.35;;;;;;;;;;5055735;28;20032;-60
2021/03/06 02:50:24;;;;;;;2.72;1.33;;;;;;;;;;5039266;28;20024;-60
2021/03/06 02:52:49;;;;;;;3.90;1.73;;;;;;;;;;5033098;28;20584;-60
2021/03/06 02:55:15;;;;;;;5.65;1.83;;;;;;;;;;5056893;28;20024;-61
2021/03/06 02:57:56;;;;;;;6.25;2.00;;;;;;;;;;5040672;28;21114;-61
2021/03/06 03:00:24;;;;;;;4.45;1.70;;;;;;;;;;5060084;28;20028;-60
2021/03/06 03:02:58;;;;;;;6.38;1.67;;;;;;;;;;5031476;28;20058;-60
2021/03/06 03:05:31;;;;;;;5.07;1.23;;;;;;;;;;5029327;28;20399;-60
2021/03/06 03:08:10;;;;;;;4.85;1.50;;;;;;;;;;5033155;28;20056;-60
2021/03/06 03:10:38;;;;;;;3.42;1.67;;;;;;;;;;5060861;28;20068;-60
2021/03/06 03:13:14;;;;;;;6.90;1.98;;;;;;;;;;5059427;28;20043;-60
2021/03/06 03:16:00;;;;;;;5.47;1.85;;;;;;;;;;5061090;28;20107;-59
2021/03/06 03:18:31;;;;;;;5.65;1.15;;;;;;;;;;5008470;28;20040;-60
2021/03/06 03:20:59;;;;;;;4.28;1.65;;;;;;;;;;5029637;28;20093;-59
2021/03/06 03:23:30;;;;;;;3.75;1.83;;;;;;;;;;5061228;28;20373;-59
2021/03/06 03:25:57;;;;;;;4.28;1.63;;;;;;;;;;5042698;28;20038;-59
2021/03/06 03:28:25;;;;;;;8.20;2.25;;;;;;;;;;5059087;28;20032;-60
2021/03/06 03:30:51;;;;;;;5.68;1.75;;;;;;;;;;5060306;28;20692;-61
2021/03/06 03:33:18;;;;;;;2.70;1.55;;;;;;;;;;5041134;28;20146;-60
2021/03/06 03:35:46;;;;;;;8.65;2.60;;;;;;;;;;5038881;28;20047;-59
2021/03/06 03:38:14;;;;;;;5.68;1.60;;;;;;;;;;5060391;28;20037;-59
2021/03/06 03:40:41;;;;;;;3.40;1.70;;;;;;;;;;5044644;28;20024;-59
2021/03/06 03:43:07;;;;;;;7.93;1.90;;;;;;;;;;5044329;28;20032;-59
2021/03/06 03:45:35;;;;;;;8.27;1.60;;;;;;;;;;5041472;28;20028;-60
2021/03/06 03:48:03;;;;;;;4.95;1.85;;;;;;;;;;5040838;28;20627;-60
2021/03/06 03:50:29;;;;;;;8.77;1.55;;;;;;;;;;5041405;28;20086;-60
2021/03/06 03:53:00;;;;;;;2.05;1.42;;;;;;;;;;5056130;28;20040;-60
2021/03/06 03:55:28;;;;;;;4.32;1.35;;;;;;;;;;5057492;28;20672;-59
2021/03/06 03:57:54;;;;;;;4.88;1.67;;;;;;;;;;5041471;28;20077;-60
2021/03/06 04:00:20;;;;;;;5.18;1.92;;;;;;;;;;5040436;28;20123;-60
2021/03/06 04:02:46;;;;;;;3.10;2.03;;;;;;;;;;5032919;28;20203;-59
2021/03/06 04:05:14;;;;;;;6.80;1.90;;;;;;;;;;5045626;28;20028;-60
2021/03/06 04:07:43;;;;;;;3.75;1.95;;;;;;;;;;5057840;28;20024;-60
2021/03/06 04:10:09;;;;;;;2.42;1.40;;;;;;;;;;5033244;28;20060;-59
2021/03/06 04:12:35;;;;;;;6.45;2.00;;;;;;;;;;5057507;28;20435;-61
2021/03/06 04:15:01;;;;;;;6.55;1.38;;;;;;;;;;5059666;28;20039;-59
2021/03/06 04:17:31;;;;;;;6.63;2.00;;;;;;;;;;5047837;28;20836;-59
2021/03/06 04:20:02;;;;;;;8.95;1.80;;;;;;;;;;5038384;28;20598;-59
2021/03/06 04:22:28;;;;;;;6.38;1.60;;;;;;;;;;5048370;28;20035;-60
2021/03/06 04:24:53;;;;;;;6.05;1.77;;;;;;;;;;5056902;28;20340;-60
2021/03/06 04:27:21;;;;;;;2.15;1.38;;;;;;;;;;5042394;28;20032;-60
2021/03/06 04:29:49;;;;;;;4.22;1.92;;;;;;;;;;5044192;28;20229;-58
2021/03/06 04:32:20;;;;;;;4.55;1.70;;;;;;;;;;5028315;28;20047;-60
2021/03/06 04:34:47;;;;;;;4.32;1.65;;;;;;;;;;5059710;28;20046;-60
2021/03/06 04:37:13;;;;;;;9.65;1.52;;;;;;;;;;5032146;28;20036;-60
2021/03/06 04:39:41;;;;;;;2.92;1.30;;;;;;;;;;5047180;28;20043;-60
2021/03/06 04:42:07;;;;;;;2.63;1.08;;;;;;;;;;5044418;28;20039;-60
2021/03/06 04:44:32;;;;;;;7.20;1.55;;;;;;;;;;5058904;28;20036;-59
2021/03/06 04:46:58;;;;;;;5.50;1.58;;;;;;;;;;5046733;28;20115;-60
2021/03/06 04:49:26;;;;;;;7.25;1.92;;;;;;;;;;5040180;28;20764;-59
2021/03/06 04:51:52;;;;;;;3.67;1.77;;;;;;;;;;5057749;28;20055;-59
2021/03/06 04:54:17;;;;;;;2.95;1.52;;;;;;;;;;5058678;28;20571;-59
2021/03/06 04:56:42;;;;;;;3.85;2.47;;;;;;;;;;5031242;28;20102;-59
2021/03/06 04:59:10;;;;;;;6.35;1.67;;;;;;;;;;5060594;28;20135;-59
2021/03/06 05:01:36;;;;;;;2.53;1.38;;;;;;;;;;5040013;28;20085;-60
2021/03/06 05:04:03;;;;;;;4.13;1.40;;;;;;;;;;5041601;28;20044;-59
2021/03/06 05:06:29;;;;;;;8.77;2.05;;;;;;;;;;5057908;28;20024;-60
2021/03/06 05:08:57;;;;;;;3.85;1.48;;;;;;;;;;5024951;28;20582;-59
2021/03/06 05:11:30;;;;;;;2.67;1.65;;;;;;;;;;5043055;28;20035;-59
2021/03/06 05:14:00;;;;;;;2.78;1.55;;;;;;;;;;5037693;28;20036;-59
2021/03/06 05:16:28;;;;;;;6.35;1.80;;;;;;;;;;5025710;28;20037;-59
2021/03/06 05:18:55;;;;;;;3.05;1.70;;;;;;;;;;5058736;28;20045;-60
2021/03/06 05:21:23;;;;;;;3.90;1.35;;;;;;;;;;5041499;28;20406;-59
2021/03/06 05:23:49;;;;;;;2.95;1.23;;;;;;;;;;5040398;28;20040;-59
2021/03/06 05:26:14;;;;;;;2.47;1.60;;;;;;;;;;5040122;28;20697;-59
2021/03/06 05:28:44;;;;;;;3.90;1.55;;;;;;;;;;5056132;28;20127;-60
2021/03/06 05:31:15;;;;;;;6.88;2.15;;;;;;;;;;5057583;28;21032;-59
2021/03/06 05:33:41;;;;;;;5.75;1.42;;;;;;;;;;5045652;28;20105;-58
2021/03/06 05:36:06;;;;;;;7.13;1.77;;;;;;;;;;5026764;28;20107;-59
2021/03/06 05:38:34;;;;;;;4.82;1.48;;;;;;;;;;5058414;28;20098;-59
2021/03/06 05:41:05;;;;;;;5.28;1.80;;;;;;;;;;5043894;28;20888;-59
2021/03/06 05:43:30;;;;;;;3.58;1.88;;;;;;;;;;5029049;28;20058;-59
2021/03/06 05:45:59;;;;;;;6.93;2.03;;;;;;;;;;5039304;28;20051;-59
2021/03/06 05:48:24;;;;;;;6.28;1.48;;;;;;;;;;5042719;28;20028;-59
2021/03/06 05:50:53;;;;;;;9.65;1.92;;;;;;;;;;5040133;28;20043;-58
2021/03/06 05:53:19;;;;;;;2.90;1.52;;;;;;;;;;5046504;28;20099;-58
2021/03/06 05:55:52;;;;;;;5.10;1.25;;;;;;;;;;5040037;28;20118;-60
2021/03/06 05:58:20;;;;;;;7.78;1.73;;;;;;;;;;5057600;28;20407;-60
2021/03/06 06:00:47;;;;;;;2.67;1.38;;;;;;;;;;5059165;28;20032;-61
2021/03/06 06:03:15;;;;;;;2.30;1.20;;;;;;;;;;5059438;28;20606;-62
2021/03/06 06:05:44;;;;;;;3.63;1.42;;;;;;;;;;5038086;28;20127;-59
2021/03/06 06:08:10;;;;;;;10.15;1.52;;;;;;;;;;5056162;28;20017;-59
2021/03/06 06:10:38;;;;;;;5.43;1.40;;;;;;;;;;5032300;28;20739;-59
2021/03/06 06:13:06;;;;;;;4.13;1.00;;;;;;;;;;5040263;28;21069;-59
2021/03/06 06:15:34;;;;;;;6.30;1.73;;;;;;;;;;5056720;28;20094;-63
2021/03/06 06:17:59;;;;;;;3.83;1.58;;;;;;;;;;5056441;28;20098;-63
2021/03/06 06:20:27;;;;;;;5.15;1.55;;;;;;;;;;5044140;28;20025;-58
2021/03/06 06:23:09;;;;;;;1.10;1.00;;;;;;;;;;5026199;28;20835;-58
2021/03/06 06:25:37;;;;;;;1.67;0.98;;;;;;;;;;5041192;28;20043;-58
2021/03/06 06:28:04;;;;;;;3.97;0.90;;;;;;;;;;5058069;28;20028;-59
2021/03/06 06:30:32;;;;;;;1.40;1.30;;;;;;;;;;5040887;28;20065;-58
2021/03/06 06:33:00;;;;;;;2.60;1.38;;;;;;;;;;5042615;28;20040;-59
2021/03/06 06:35:28;;;;;;;8.88;1.50;;;;;;;;;;5042965;28;20028;-59
2021/03/06 06:38:24;;;;;;;4.90;1.10;;;;;;;;;;5061006;28;21039;-58
2021/03/06 06:41:01;;;;;;;7.20;1.88;;;;;;;;;;5062694;28;22049;-61
2021/03/06 06:43:29;;;;;;;6.03;1.95;;;;;;;;;;5016711;28;20047;-60
2021/03/06 06:45:57;;;;;;;3.00;1.58;;;;;;;;;;5050943;28;20028;-59
2021/03/06 06:48:25;;;;;;;10.52;1.45;;;;;;;;;;5045895;28;20036;-59
2021/03/06 06:51:05;;;;;;;2.47;1.17;;;;;;;;;;5028228;28;20137;-59
2021/03/06 06:53:32;;;;;;;2.35;1.33;;;;;;;;;;5046332;28;20024;-59
2021/03/06 06:55:58;;;;;;;7.75;1.30;;;;;;;;;;5044696;28;20040;-58
2021/03/06 06:58:37;;;;;;;2.17;0.85;;;;;;;;;;5043597;28;20026;-58
2021/03/06 07:01:24;;;;;;;2.45;1.17;;;;;;;;;;5042911;28;20052;-58
2021/03/06 07:04:00;;;;;;;6.07;1.55;;;;;;;;;;5032925;28;20396;-60
2021/03/06 07:06:29;;;;;;;8.18;1.40;;;;;;;;;;5059088;28;20143;-58
2021/03/06 07:09:05;;;;;;;3.35;1.40;;;;;;;;;;5060167;28;20107;-58
2021/03/06 07:11:33;;;;;;;4.25;1.42;;;;;;;;;;5043748;28;20045;-58
2021/03/06 07:13:58;;;;;;;7.38;1.58;;;;;;;;;;5050086;28;20404;-59
2021/03/06 07:16:24;;;;;;;4.53;1.52;;;;;;;;;;5045867;28;20036;-60
2021/03/06 07:19:04;;;;;;;3.90;1.40;;;;;;;;;;5037788;28;20040;-59
2021/03/06 07:21:45;;;;;;;5.07;1.88;;;;;;;;;;5037666;28;20041;-59
2021/03/06 07:24:15;;;;;;;0.90;0.82;;;;;;;;;;5038756;28;20038;-59
2021/03/06 07:26:44;;;;;;;5.90;0.95;;;;;;;;;;5046408;28;20555;-59
2021/03/06 07:29:09;;;;;;;6.13;1.20;;;;;;;;;;5045673;28;20037;-59
2021/03/06 07:31:39;;;;;;;3.47;0.88;;;;;;;;;;5043188;28;20079;-60
2021/03/06 07:34:07;;;;;;;2.72;0.90;;;;;;;;;;5042289;28;20140;-60
2021/03/06 07:36:36;;;;;;;1.40;0.73;;;;;;;;;;5025270;28;20028;-59
2021/03/06 07:39:06;;;;;;;5.90;1.05;;;;;;;;;;5023989;28;20064;-59
2021/03/06 07:41:41;;;;;;;4.75;1.10;;;;;;;;;;5044540;28;20071;-59
2021/03/06 07:44:11;;;;;;;3.78;0.90;;;;;;;;;;5042975;28;20791;-59
2021/03/06 07:46:39;;;;;;;3.88;0.85;;;;;;;;;;5041777;28;20036;-60
2021/03/06 07:49:11;;;;;;;3.35;0.98;;;;;;;;;;5012896;28;20047;-58
2021/03/06 07:51:39;;;;;;;6.72;0.70;;;;;;;;;;5037326;28;20428;-58
2021/03/06 07:54:07;;;;;;;1.73;0.73;;;;;;;;;;5043054;28;20087;-58
2021/03/06 07:56:38;;;;;;;2.65;0.80;;;;;;;;;;5038565;28;20033;-60
2021/03/06 07:59:09;;;;;;;2.58;0.90;;;;;;;;;;5021877;28;20032;-58
2021/03/06 08:01:37;;;;;;;3.40;0.70;;;;;;;;;;5038751;28;20032;-59
2021/03/06 08:04:03;;;;;;;5.22;0.93;;;;;;;;;;5037119;28;20424;-58
2021/03/06 08:06:32;;;;;;;1.55;0.65;;;;;;;;;;5009518;28;20045;-58
2021/03/06 08:08:58;;;;;;;2.47;0.82;;;;;;;;;;5041446;28;20036;-59
2021/03/06 08:11:23;;;;;;;6.25;0.77;;;;;;;;;;5032278;28;20063;-59
2021/03/06 08:13:56;;;;;;;2.78;0.73;;;;;;;;;;5039358;28;20123;-59
2021/03/06 08:16:29;;;;;;;5.97;1.00;;;;;;;;;;5039303;28;20029;-59
2021/03/06 08:19:22;;;;;;;2.47;0.98;;;;;;;;;;5035951;28;20514;-59
2021/03/06 08:21:54;;;;;;;4.80;1.05;;;;;;;;;;5033089;28;20685;-60
2021/03/06 08:24:19;;;;;;;4.50;0.90;;;;;;;;;;5041161;28;20076;-60
2021/03/06 08:26:54;;;;;;;3.65;0.95;;;;;;;;;;5038251;28;20029;-59
2021/03/06 08:29:42;;;;;;;0.52;0.52;;;;;;;;;;5007559;28;20639;-59
2021/03/06 08:32:16;;;;;;;3.60;1.13;;;;;;;;;;5022257;28;20045;-58
2021/03/06 08:34:45;;;;;;;8.85;1.40;;;;;;;;;;5002184;28;20582;-58
2021/03/06 08:37:14;;;;;;;1.70;0.90;;;;;;;;;;5001213;28;20617;-58
2021/03/06 08:39:43;;;;;;;6.55;1.10;;;;;;;;;;5004665;28;20045;-58
2021/03/06 08:42:09;;;;;;;2.92;1.10;;;;;;;;;;5004559;28;20067;-59
2021/03/06 08:44:35;;;;;;;6.13;1.35;;;;;;;;;;5020930;28;20107;-58
2021/03/06 08:47:03;;;;;;;5.07;1.45;;;;;;;;;;5022937;28;20591;-59
2021/03/06 08:49:31;;;;;;;3.70;1.23;;;;;;;;;;5008027;28;20075;-59
2021/03/06 08:51:59;;;;;;;3.28;1.15;;;;;;;;;;5002468;28;20652;-58
2021/03/06 08:54:25;;;;;;;5.65;1.05;;;;;;;;;;5006731;28;20045;-59
2021/03/06 08:56:55;;;;;;;4.68;1.10;;;;;;;;;;4988804;28;20055;-58
2021/03/06 08:59:39;;;;;;;2.78;0.82;;;;;;;;;;5021972;28;20045;-59
2021/03/06 09:02:18;;;;;;;3.55;1.20;;;;;;;;;;5035045;28;20559;-59
2021/03/06 09:04:46;;;;;;;3.47;0.90;;;;;;;;;;5035868;28;20033;-60
2021/03/06 09:07:23;;;;;;;2.85;0.22;;;;;;;;;;5042053;28;20124;-59
2021/03/06 09:09:52;;;;;;;2.00;0.40;;;;;;;;;;5040043;28;20036;-59
2021/03/06 09:12:20;;;;;;;1.38;0.20;;;;;;;;;;5025170;28;20042;-59
2021/03/06 09:14:50;;;;;;;0.80;0.15;;;;;;;;;;5030681;28;20079;-60
2021/03/06 09:17:19;;;;;;;0.73;0.10;;;;;;;;;;5039516;28;20125;-60
2021/03/06 09:19:45;;;;;;;1.42;0.30;;;;;;;;;;5041268;28;20135;-59
2021/03/06 09:22:10;;;;;;;1.77;0.40;;;;;;;;;;5049547;28;20141;-59
2021/03/06 09:24:45;;;;;;;2.30;0.15;;;;;;;;;;5030971;28;22144;-59
2021/03/06 09:27:10;;;;;;;2.95;0.50;;;;;;;;;;5036215;28;20067;-60
2021/03/06 09:29:41;;;;;;;3.00;0.60;;;;;;;;;;5041427;28;20099;-60
2021/03/06 09:32:08;;;;;;;1.58;0.22;;;;;;;;;;5034906;28;20144;-60
2021/03/06 09:34:35;;;;;;;0.95;0.30;;;;;;;;;;5041759;28;20091;-60
2021/03/06 09:37:12;;;;;;;0.80;0.25;;;;;;;;;;5022589;28;20032;-61
2021/03/06 09:39:42;;;;;;;2.88;0.45;;;;;;;;;;5030092;28;20259;-60
2021/03/06 09:42:08;;;;;;;7.60;0.52;;;;;;;;;;5037158;28;20051;-59
2021/03/06 09:44:37;;;;;;;2.97;0.50;;;;;;;;;;5030823;28;20039;-59
2021/03/06 09:47:02;;;;;;;3.55;0.40;;;;;;;;;;5023238;28;20213;-60
2021/03/06 09:49:36;;;;;;;0.70;0.40;;;;;;;;;;5037175;28;21942;-61
2021/03/06 09:52:06;;;;;;;3.72;0.57;;;;;;;;;;5036651;28;20036;-60
2021/03/06 09:54:36;;;;;;;2.58;0.20;;;;;;;;;;5036557;28;20039;-60
2021/03/06 09:57:03;;;;;;;4.38;0.30;;;;;;;;;;5033103;28;20045;-59
2021/03/06 09:59:34;;;;;;;0.40;0.25;;;;;;;;;;5034032;28;20476;-59
2021/03/06 10:02:11;;;;;;;6.78;0.70;;;;;;;;;;5039678;28;20028;-61
2021/03/06 10:04:37;;;;;;;5.28;0.50;;;;;;;;;;5035677;28;20036;-61
2021/03/06 10:07:08;;;;;;;7.53;0.60;;;;;;;;;;5035610;28;20175;-60
2021/03/06 10:09:36;;;;;;;2.63;0.70;;;;;;;;;;5038887;28;20777;-60
2021/03/06 10:12:03;;;;;;;5.15;0.65;;;;;;;;;;5039322;28;20054;-60
2021/03/06 10:14:32;;;;;;;4.63;0.63;;;;;;;;;;5041600;28;20167;-61
2021/03/06 10:17:01;;;;;;;2.67;0.60;;;;;;;;;;5025324;28;20033;-60
2021/03/06 10:19:28;;;;;;;2.83;1.00;;;;;;;;;;5059101;28;20041;-60
2021/03/06 10:22:00;;;;;;;3.05;0.60;;;;;;;;;;5041929;28;20032;-60
2021/03/06 10:24:25;;;;;;;5.70;0.80;;;;;;;;;;5060344;28;20064;-60
2021/03/06 10:26:55;;;;;;;3.08;0.60;;;;;;;;;;5059005;28;22137;-59
2021/03/06 10:29:22;;;;;;;3.00;0.75;;;;;;;;;;5062119;28;20031;-60
2021/03/06 10:31:54;;;;;;;8.90;0.75;;;;;;;;;;5031147;28;20947;-61
2021/03/06 10:34:21;;;;;;;2.45;0.57;;;;;;;;;;5048694;28;20115;-61
2021/03/06 10:37:04;;;;;;;0.70;0.47;;;;;;;;;;5047094;28;20147;-60
2021/03/06 10:39:33;;;;;;;4.80;0.63;;;;;;;;;;5062222;28;20032;-61
2021/03/06 10:42:01;;;;;;;4.15;0.70;;;;;;;;;;5041201;28;20128;-60
2021/03/06 10:44:39;;;;;;;4.00;0.90;;;;;;;;;;5046702;28;20028;-60
2021/03/06 10:47:07;;;;;;;8.10;0.80;;;;;;;;;;5048972;28;20162;-61
2021/03/06 10:49:39;;;;;;;3.95;0.90;;;;;;;;;;5059516;28;20020;-61
2021/03/06 10:52:21;;;;;;;4.10;0.90;;;;;;;;;;5058610;28;20514;-62
2021/03/06 10:54:52;;;;;;;2.65;0.88;;;;;;;;;;5047319;28;20039;-60
2021/03/06 10:57:17;;;;;;;2.45;0.60;;;;;;;;;;5045340;28;20047;-62
2021/03/06 10:59:43;;;;;;;3.67;0.50;;;;;;;;;;5033779;28;20024;-60
2021/03/06 11:02:41;;;;;;;1.83;0.30;;;;;;;;;;5030287;28;20043;-60
2021/03/06 11:05:22;;;;;;;3.40;0.68;;;;;;;;;;5027261;28;20157;-61
2021/03/06 11:07:47;;;;;;;3.55;0.98;;;;;;;;;;5047967;28;20048;-61
2021/03/06 11:10:13;;;;;;;5.95;0.60;;;;;;;;;;5043218;28;20067;-61
2021/03/06 11:12:49;;;;;;;3.17;0.88;;;;;;;;;;5045172;28;20039;-61
2021/03/06 11:15:16;;;;;;;0.60;0.45;;;;;;;;;;5060940;28;20074;-60
2021/03/06 11:17:42;;;;;;;2.97;0.68;;;;;;;;;;5042920;28;20044;-60
2021/03/06 11:20:14;;;;;;;3.15;0.80;;;;;;;;;;5057662;28;21059;-61
2021/03/06 11:22:39;;;;;;;3.50;0.60;;;;;;;;;;5048405;28;20169;-60
2021/03/06 11:25:09;;;;;;;2.58;0.80;;;;;;;;;;5039159;28;21220;-60
2021/03/06 11:27:42;;;;;;;3.05;0.73;;;;;;;;;;5046240;28;20038;-60
2021/03/06 11:30:12;;;;;;;5.60;0.95;;;;;;;;;;5027776;28;20111;-60
2021/03/06 11:32:39;;;;;;;4.68;0.82;;;;;;;;;;5057699;28;20391;-60
2021/03/06 11:35:07;;;;;;;4.57;1.13;;;;;;;;;;5042707;28;21521;-61
2021/03/06 11:37:35;;;;;;;5.00;0.80;;;;;;;;;;5042845;28;20024;-60
2021/03/06 11:40:06;;;;;;;2.35;0.55;;;;;;;;;;5041187;28;20137;-59
2021/03/06 11:42:31;;;;;;;4.03;0.98;;;;;;;;;;5042178;28;20029;-60
2021/03/06 11:45:02;;;;;;;5.20;0.75;;;;;;;;;;5059781;28;20028;-60
2021/03/06 11:47:27;;;;;;;8.52;1.13;;;;;;;;;;5060238;28;20061;-60
2021/03/06 11:49:55;;;;;;;6.90;1.08;;;;;;;;;;5042981;28;20602;-60
2021/03/06 11:52:20;;;;;;;3.30;0.52;;;;;;;;;;5041199;28;20909;-60
2021/03/06 11:54:47;;;;;;;9.38;0.80;;;;;;;;;;5046170;28;21883;-60
2021/03/06 11:57:12;;;;;;;2.10;0.70;;;;;;;;;;5046320;28;20067;-61
2021/03/06 11:59:38;;;;;;;2.10;0.85;;;;;;;;;;5042317;28;20113;-62
2021/03/06 12:02:06;;;;;;;4.93;0.90;;;;;;;;;;5058206;28;20571;-61
2021/03/06 12:04:31;;;;;;;4.80;0.68;;;;;;;;;;5058467;28;20044;-61
2021/03/06 12:06:59;;;;;;;4.35;0.70;;;;;;;;;;5010033;28;20096;-61
2021/03/06 12:09:24;;;;;;;1.67;0.52;;;;;;;;;;5029905;28;20566;-61
2021/03/06 12:11:52;;;;;;;9.63;0.93;;;;;;;;;;5041370;28;20047;-61
2021/03/06 12:14:20;;;;;;;2.80;0.63;;;;;;;;;;5036993;28;20032;-60
2021/03/06 12:16:47;;;;;;;3.83;0.52;;;;;;;;;;5042253;28;20464;-60
2021/03/06 12:19:15;;;;;;;3.78;0.80;;;;;;;;;;5059709;28;20059;-60
2021/03/06 12:21:45;;;;;;;1.48;0.40;;;;;;;;;;5027400;28;20036;-62
2021/03/06 12:24:11;;;;;;;2.53;0.55;;;;;;;;;;5057315;28;20033;-61
2021/03/06 12:26:39;;;;;;;7.10;0.85;;;;;;;;;;5042474;28;20129;-62
2021/03/06 12:29:06;;;;;;;0.43;0.43;;;;;;;;;;5058261;28;20119;-62
2021/03/06 12:31:32;;;;;;;0.40;0.40;;;;;;;;;;5039373;28;20089;-62
2021/03/06 12:33:58;;;;;;;2.33;0.47;;;;;;;;;;5023766;28;20032;-61
2021/03/06 12:36:30;;;;;;;5.78;0.68;;;;;;;;;;5056301;28;20049;-61
2021/03/06 12:39:00;;;;;;;3.55;0.95;;;;;;;;;;5042183;28;20110;-61
2021/03/06 12:41:25;;;;;;;1.98;0.75;;;;;;;;;;5057677;28;20039;-61
2021/03/06 12:43:51;;;;;;;4.25;0.73;;;;;;;;;;5030655;28;20094;-61
2021/03/06 12:46:19;;;;;;;4.47;0.63;;;;;;;;;;5040673;28;20043;-61
2021/03/06 12:48:46;;;;;;;3.00;0.70;;;;;;;;;;5023260;28;20040;-62
2021/03/06 12:51:14;;;;;;;6.00;0.75;;;;;;;;;;5029005;28;20047;-62
2021/03/06 12:53:42;;;;;;;3.92;0.88;;;;;;;;;;5026589;28;20037;-61
2021/03/06 12:56:10;;;;;;;3.70;0.47;;;;;;;;;;5058828;28;20034;-61
2021/03/06 12:58:37;;;;;;;3.20;0.60;;;;;;;;;;5056578;28;20113;-61
2021/03/06 13:01:03;;;;;;;2.95;0.43;;;;;;;;;;5038604;28;20166;-60
2021/03/06 13:03:33;;;;;;;1.00;0.50;;;;;;;;;;5039880;28;20031;-62
2021/03/06 13:05:58;;;;;;;2.53;0.50;;;;;;;;;;5026300;28;20127;-61
2021/03/06 13:08:26;;;;;;;1.75;0.60;;;;;;;;;;5041133;28;20475;-61
2021/03/06 13:10:57;;;;;;;1.83;0.57;;;;;;;;;;5039232;28;20111;-61
2021/03/06 13:13:23;;;;;;;3.05;0.90;;;;;;;;;;5026919;28;20033;-62
2021/03/06 13:15:53;;;;;;;1.65;0.63;;;;;;;;;;5042107;28;20479;-61
2021/03/06 13:18:21;;;;;;;2.15;0.80;;;;;;;;;;5057896;28;20071;-61
2021/03/06 13:20:49;;;;;;;0.93;0.40;;;;;;;;;;5041616;28;20052;-61
2021/03/06 13:23:19;;;;;;;5.40;1.25;;;;;;;;;;5036595;28;20173;-61
2021/03/06 13:25:45;;;;;;;5.90;0.95;;;;;;;;;;5010220;28;20395;-61
2021/03/06 13:28:15;;;;;;;4.90;0.80;;;;;;;;;;5041722;28;20059;-61
2021/03/06 13:30:41;;;;;;;2.53;0.63;;;;;;;;;;5038995;28;20036;-61
2021/03/06 13:33:11;;;;;;;0.82;0.50;;;;;;;;;;5058651;28;20186;-61
2021/03/06 13:35:36;;;;;;;2.10;0.60;;;;;;;;;;5008875;28;20699;-61
2021/03/06 13:38:02;;;;;;;2.85;0.55;;;;;;;;;;5045699;28;20067;-62
2021/03/06 13:40:27;;;;;;;4.45;0.80;;;;;;;;;;5042283;28;20379;-61
2021/03/06 13:42:55;;;;;;;2.28;0.50;;;;;;;;;;5039394;28;20039;-62
2021/03/06 13:45:20;;;;;;;5.85;0.80;;;;;;;;;;5039696;28;21716;-60
2021/03/06 13:47:48;;;;;;;1.80;0.50;;;;;;;;;;5026384;28;20479;-60
2021/03/06 13:50:19;;;;;;;3.00;1.00;;;;;;;;;;5024822;28;20032;-61
2021/03/06 13:52:46;;;;;;;0.90;0.40;;;;;;;;;;5057783;28;20036;-62
2021/03/06 13:55:13;;;;;;;2.70;0.55;;;;;;;;;;5056378;28;20040;-61
2021/03/06 13:57:41;;;;;;;0.60;0.28;;;;;;;;;;5037371;28;21463;-61
2021/03/06 14:00:08;;;;;;;5.53;0.88;;;;;;;;;;5057030;28;20019;-61
2021/03/06 14:02:33;;;;;;;5.40;0.95;;;;;;;;;;5039305;28;20145;-60
2021/03/06 14:04:59;;;;;;;3.53;0.70;;;;;;;;;;5044302;28;20045;-61
2021/03/06 14:07:24;;;;;;;0.52;0.30;;;;;;;;;;5039676;28;20052;-62
2021/03/06 14:09:50;;;;;;;1.20;0.95;;;;;;;;;;5045071;28;20113;-62
2021/03/06 14:12:15;;;;;;;3.22;1.30;;;;;;;;;;5040679;28;20060;-60
2021/03/06 14:14:41;;;;;;;1.40;0.40;;;;;;;;;;5055536;28;20021;-61
2021/03/06 14:17:06;;;;;;;2.90;0.47;;;;;;;;;;5041704;28;20036;-61
2021/03/06 14:19:35;;;;;;;1.38;0.30;;;;;;;;;;5058889;28;20188;-61
2021/03/06 14:22:03;;;;;;;5.88;0.63;;;;;;;;;;5033317;28;20105;-62
2021/03/06 14:24:31;;;;;;;5.97;0.85;;;;;;;;;;5057834;28;20035;-63
2021/03/06 14:26:57;;;;;;;2.28;0.35;;;;;;;;;;5053986;28;20020;-60
2021/03/06 14:29:25;;;;;;;1.70;0.22;;;;;;;;;;5039121;28;20549;-61
2021/03/06 14:31:51;;;;;;;1.30;0.50;;;;;;;;;;5057707;28;20043;-62
2021/03/06 14:34:17;;;;;;;0.30;0.30;;;;;;;;;;5057711;28;21388;-63
2021/03/06 14:36:42;;;;;;;5.70;0.63;;;;;;;;;;5058037;28;21115;-62
2021/03/06 14:39:10;;;;;;;2.83;0.60;;;;;;;;;;5043631;28;20059;-61
2021/03/06 14:41:35;;;;;;;2.17;0.55;;;;;;;;;;5058535;28;20040;-61
2021/03/06 14:44:01;;;;;;;4.55;0.63;;;;;;;;;;5043791;28;20040;-61
2021/03/06 14:46:27;;;;;;;4.10;0.40;;;;;;;;;;5038950;28;20043;-61
2021/03/06 14:48:53;;;;;;;3.72;0.50;;;;;;;;;;5053997;28;20166;-61
2021/03/06 14:51:21;;;;;;;7.88;0.77;;;;;;;;;;5024914;28;20110;-63
2021/03/06 14:53:46;;;;;;;5.40;0.70;;;;;;;;;;5021313;28;20101;-61